sensor_id;sensor_type;location;lat;lon;timestamp;P1;durP1;ratioP1;P2;durP2;ratioP2
74845;SDS011;63393;48.758;9.254;2023-05-10T00:00:29;5.38;;;2.08;;
74845;SDS011;63393;48.758;9.254;2023-05-10T00:01:13;6.35;;;1.90;;
74845;SDS011;63393;48.758;9.254;2023-05-10T00:01:45;7.75;;;2.00;;
74845;SDS011;63393;48.758;9.254;2023-05-10T00:02:16;7.15;;;2.35;;
74845;SDS011;63393;48.758;9.254;2023-05-10T00:02:47;4.95;;;1.90;;
74845;SDS011;63393;48.758;9.254;2023-05-10T00:03:20;4.93;;;1.85;;
74845;SDS011;63393;48.758;9.254;2023-05-10T00:03:51;7.00;;;1.85;;
74845;SDS011;63393;48.758;9.254;2023-05-10T00:04:22;4.18;;;1.80;;
74845;SDS011;63393;48.758;9.254;2023-05-10T00:04:53;6.18;;;1.95;;
74845;SDS011;63393;48.758;9.254;2023-05-10T00:05:24;4.65;;;1.90;;
74845;SDS011;63393;48.758;9.254;2023-05-10T00:05:56;5.28;;;1.88;;
74845;SDS011;63393;48.758;9.254;2023-05-10T00:06:27;4.68;;;1.80;;
74845;SDS011;63393;48.758;9.254;2023-05-10T00:06:58;4.55;;;1.77;;
74845;SDS011;63393;48.758;9.254;2023-05-10T00:07:29;3.83;;;1.80;;
74845;SDS011;63393;48.758;9.254;2023-05-10T00:08:00;5.80;;;1.80;;
74845;SDS011;63393;48.758;9.254;2023-05-10T00:08:31;5.90;;;1.80;;
74845;SDS011;63393;48.758;9.254;2023-05-10T00:09:03;5.95;;;1.83;;
74845;SDS011;63393;48.758;9.254;2023-05-10T00:09:34;5.72;;;1.52;;
74845;SDS011;63393;48.758;9.254;2023-05-10T00:10:06;2.92;;;1.38;;
74845;SDS011;63393;48.758;9.254;2023-05-10T00:10:37;2.88;;;1.50;;
74845;SDS011;63393;48.758;9.254;2023-05-10T00:11:08;3.88;;;1.70;;
74845;SDS011;63393;48.758;9.254;2023-05-10T00:11:39;6.50;;;1.80;;
74845;SDS011;63393;48.758;9.254;2023-05-10T00:12:12;5.00;;;1.65;;
74845;SDS011;63393;48.758;9.254;2023-05-10T00:12:43;6.40;;;1.88;;
74845;SDS011;63393;48.758;9.254;2023-05-10T00:13:14;3.72;;;1.50;;
74845;SDS011;63393;48.758;9.254;2023-05-10T00:13:45;4.40;;;1.50;;
74845;SDS011;63393;48.758;9.254;2023-05-10T00:14:17;5.90;;;1.70;;
74845;SDS011;63393;48.758;9.254;2023-05-10T00:14:48;5.53;;;1.63;;
74845;SDS011;63393;48.758;9.254;2023-05-10T00:15:19;5.85;;;1.65;;
74845;SDS011;63393;48.758;9.254;2023-05-10T00:15:50;5.32;;;1.83;;
74845;SDS011;63393;48.758;9.254;2023-05-10T00:16:21;6.60;;;2.10;;
74845;SDS011;63393;48.758;9.254;2023-05-10T00:16:53;5.97;;;1.98;;
74845;SDS011;63393;48.758;9.254;2023-05-10T00:17:24;4.95;;;1.70;;
74845;SDS011;63393;48.758;9.254;2023-05-10T00:17:55;4.50;;;1.60;;
74845;SDS011;63393;48.758;9.254;2023-05-10T00:18:27;2.65;;;1.40;;
74845;SDS011;63393;48.758;9.254;2023-05-10T00:18:59;4.10;;;1.50;;
74845;SDS011;63393;48.758;9.254;2023-05-10T00:19:30;5.22;;;1.63;;
74845;SDS011;63393;48.758;9.254;2023-05-10T00:20:01;3.60;;;1.60;;
74845;SDS011;63393;48.758;9.254;2023-05-10T00:20:32;3.17;;;1.50;;
74845;SDS011;63393;48.758;9.254;2023-05-10T00:21:04;5.07;;;1.45;;
74845;SDS011;63393;48.758;9.254;2023-05-10T00:21:35;4.85;;;1.60;;
74845;SDS011;63393;48.758;9.254;2023-05-10T00:22:06;4.55;;;1.50;;
74845;SDS011;63393;48.758;9.254;2023-05-10T00:22:37;4.22;;;1.33;;
74845;SDS011;63393;48.758;9.254;2023-05-10T00:23:09;4.95;;;1.50;;
74845;SDS011;63393;48.758;9.254;2023-05-10T00:23:40;4.47;;;1.50;;
74845;SDS011;63393;48.758;9.254;2023-05-10T00:24:11;2.22;;;1.30;;
74845;SDS011;63393;48.758;9.254;2023-05-10T00:24:42;4.05;;;1.30;;
74845;SDS011;63393;48.758;9.254;2023-05-10T00:25:13;3.47;;;1.00;;
74845;SDS011;63393;48.758;9.254;2023-05-10T00:25:45;1.67;;;1.02;;
74845;SDS011;63393;48.758;9.254;2023-05-10T00:26:16;1.63;;;1.00;;
74845;SDS011;63393;48.758;9.254;2023-05-10T00:26:50;2.70;;;1.10;;
74845;SDS011;63393;48.758;9.254;2023-05-10T00:27:21;1.45;;;1.00;;
74845;SDS011;63393;48.758;9.254;2023-05-10T00:27:52;1.65;;;0.88;;
74845;SDS011;63393;48.758;9.254;2023-05-10T00:28:24;2.25;;;1.08;;
74845;SDS011;63393;48.758;9.254;2023-05-10T00:28:55;1.45;;;0.90;;
74845;SDS011;63393;48.758;9.254;2023-05-10T00:29:26;5.85;;;1.20;;
74845;SDS011;63393;48.758;9.254;2023-05-10T00:29:57;3.13;;;1.10;;
74845;SDS011;63393;48.758;9.254;2023-05-10T00:30:28;2.47;;;1.00;;
74845;SDS011;63393;48.758;9.254;2023-05-10T00:31:00;3.15;;;0.90;;
74845;SDS011;63393;48.758;9.254;2023-05-10T00:31:33;1.60;;;0.80;;
74845;SDS011;63393;48.758;9.254;2023-05-10T00:32:04;1.98;;;0.80;;
74845;SDS011;63393;48.758;9.254;2023-05-10T00:32:35;4.07;;;1.10;;
74845;SDS011;63393;48.758;9.254;2023-05-10T00:33:06;2.20;;;0.80;;
74845;SDS011;63393;48.758;9.254;2023-05-10T00:33:39;2.05;;;0.70;;
74845;SDS011;63393;48.758;9.254;2023-05-10T00:34:10;4.13;;;0.93;;
74845;SDS011;63393;48.758;9.254;2023-05-10T00:34:41;3.70;;;0.80;;
74845;SDS011;63393;48.758;9.254;2023-05-10T00:35:13;2.53;;;0.80;;
74845;SDS011;63393;48.758;9.254;2023-05-10T00:35:44;3.72;;;0.90;;
74845;SDS011;63393;48.758;9.254;2023-05-10T00:36:15;1.30;;;0.73;;
74845;SDS011;63393;48.758;9.254;2023-05-10T00:36:46;3.40;;;1.00;;
74845;SDS011;63393;48.758;9.254;2023-05-10T00:37:17;2.83;;;0.65;;
74845;SDS011;63393;48.758;9.254;2023-05-10T00:37:48;3.10;;;0.77;;
74845;SDS011;63393;48.758;9.254;2023-05-10T00:38:20;2.80;;;0.80;;
74845;SDS011;63393;48.758;9.254;2023-05-10T00:38:51;2.97;;;0.90;;
74845;SDS011;63393;48.758;9.254;2023-05-10T00:39:22;0.63;;;0.63;;
74845;SDS011;63393;48.758;9.254;2023-05-10T00:39:53;1.25;;;0.63;;
74845;SDS011;63393;48.758;9.254;2023-05-10T00:40:25;3.38;;;0.90;;
74845;SDS011;63393;48.758;9.254;2023-05-10T00:41:00;1.00;;;0.80;;
74845;SDS011;63393;48.758;9.254;2023-05-10T00:41:34;1.70;;;0.73;;
74845;SDS011;63393;48.758;9.254;2023-05-10T00:42:06;2.13;;;0.70;;
74845;SDS011;63393;48.758;9.254;2023-05-10T00:42:37;3.33;;;1.35;;
74845;SDS011;63393;48.758;9.254;2023-05-10T00:43:10;0.82;;;0.68;;
74845;SDS011;63393;48.758;9.254;2023-05-10T00:43:41;2.53;;;0.70;;
74845;SDS011;63393;48.758;9.254;2023-05-10T00:44:12;3.75;;;0.90;;
74845;SDS011;63393;48.758;9.254;2023-05-10T00:44:43;1.02;;;0.80;;
74845;SDS011;63393;48.758;9.254;2023-05-10T00:45:15;4.35;;;0.98;;
74845;SDS011;63393;48.758;9.254;2023-05-10T00:45:46;2.13;;;0.75;;
74845;SDS011;63393;48.758;9.254;2023-05-10T00:46:17;0.95;;;0.70;;
74845;SDS011;63393;48.758;9.254;2023-05-10T00:46:49;1.70;;;0.70;;
74845;SDS011;63393;48.758;9.254;2023-05-10T00:47:20;3.85;;;0.80;;
74845;SDS011;63393;48.758;9.254;2023-05-10T00:47:51;4.55;;;0.80;;
74845;SDS011;63393;48.758;9.254;2023-05-10T00:48:22;0.95;;;0.75;;
74845;SDS011;63393;48.758;9.254;2023-05-10T00:48:55;2.63;;;0.80;;
74845;SDS011;63393;48.758;9.254;2023-05-10T00:49:27;2.50;;;0.60;;
74845;SDS011;63393;48.758;9.254;2023-05-10T00:49:59;0.68;;;0.60;;
74845;SDS011;63393;48.758;9.254;2023-05-10T00:50:30;5.63;;;0.60;;
74845;SDS011;63393;48.758;9.254;2023-05-10T00:51:02;1.33;;;0.65;;
74845;SDS011;63393;48.758;9.254;2023-05-10T00:51:33;4.20;;;0.85;;
74845;SDS011;63393;48.758;9.254;2023-05-10T00:52:04;3.20;;;0.65;;
74845;SDS011;63393;48.758;9.254;2023-05-10T00:52:36;0.70;;;0.70;;
74845;SDS011;63393;48.758;9.254;2023-05-10T00:53:07;1.48;;;0.73;;
74845;SDS011;63393;48.758;9.254;2023-05-10T00:53:39;2.10;;;0.68;;
74845;SDS011;63393;48.758;9.254;2023-05-10T00:54:11;1.73;;;0.55;;
74845;SDS011;63393;48.758;9.254;2023-05-10T00:54:42;1.13;;;0.68;;
74845;SDS011;63393;48.758;9.254;2023-05-10T00:55:14;2.35;;;0.60;;
74845;SDS011;63393;48.758;9.254;2023-05-10T00:55:45;1.38;;;0.60;;
74845;SDS011;63393;48.758;9.254;2023-05-10T00:56:17;1.27;;;0.68;;
74845;SDS011;63393;48.758;9.254;2023-05-10T00:56:49;2.13;;;0.60;;
74845;SDS011;63393;48.758;9.254;2023-05-10T00:57:20;2.08;;;0.70;;
74845;SDS011;63393;48.758;9.254;2023-05-10T00:57:52;1.25;;;0.60;;
74845;SDS011;63393;48.758;9.254;2023-05-10T00:58:23;3.38;;;0.60;;
74845;SDS011;63393;48.758;9.254;2023-05-10T00:58:54;2.75;;;0.70;;
74845;SDS011;63393;48.758;9.254;2023-05-10T00:59:26;1.95;;;0.70;;
74845;SDS011;63393;48.758;9.254;2023-05-10T00:59:58;3.88;;;0.70;;
74845;SDS011;63393;48.758;9.254;2023-05-10T01:00:30;1.27;;;0.60;;
74845;SDS011;63393;48.758;9.254;2023-05-10T01:01:03;2.28;;;0.60;;
74845;SDS011;63393;48.758;9.254;2023-05-10T01:01:35;3.90;;;0.70;;
74845;SDS011;63393;48.758;9.254;2023-05-10T01:02:06;2.22;;;0.73;;
74845;SDS011;63393;48.758;9.254;2023-05-10T01:02:37;1.00;;;0.80;;
74845;SDS011;63393;48.758;9.254;2023-05-10T01:03:09;1.35;;;0.60;;
74845;SDS011;63393;48.758;9.254;2023-05-10T01:03:40;1.15;;;0.55;;
74845;SDS011;63393;48.758;9.254;2023-05-10T01:04:14;1.50;;;0.50;;
74845;SDS011;63393;48.758;9.254;2023-05-10T01:04:46;0.50;;;0.50;;
74845;SDS011;63393;48.758;9.254;2023-05-10T01:05:17;0.50;;;0.50;;
74845;SDS011;63393;48.758;9.254;2023-05-10T01:05:48;1.88;;;0.50;;
74845;SDS011;63393;48.758;9.254;2023-05-10T01:06:20;1.73;;;0.47;;
74845;SDS011;63393;48.758;9.254;2023-05-10T01:06:51;2.38;;;0.60;;
74845;SDS011;63393;48.758;9.254;2023-05-10T01:07:22;1.05;;;0.60;;
74845;SDS011;63393;48.758;9.254;2023-05-10T01:07:54;0.75;;;0.50;;
74845;SDS011;63393;48.758;9.254;2023-05-10T01:08:25;4.45;;;0.70;;
74845;SDS011;63393;48.758;9.254;2023-05-10T01:08:56;2.65;;;0.60;;
74845;SDS011;63393;48.758;9.254;2023-05-10T01:09:27;1.92;;;0.90;;
74845;SDS011;63393;48.758;9.254;2023-05-10T01:09:58;2.25;;;0.70;;
74845;SDS011;63393;48.758;9.254;2023-05-10T01:10:30;2.53;;;0.60;;
74845;SDS011;63393;48.758;9.254;2023-05-10T01:11:01;2.83;;;0.65;;
74845;SDS011;63393;48.758;9.254;2023-05-10T01:11:32;1.83;;;0.70;;
74845;SDS011;63393;48.758;9.254;2023-05-10T01:12:04;2.63;;;0.70;;
74845;SDS011;63393;48.758;9.254;2023-05-10T01:12:37;1.00;;;0.50;;
74845;SDS011;63393;48.758;9.254;2023-05-10T01:13:08;0.93;;;0.43;;
74845;SDS011;63393;48.758;9.254;2023-05-10T01:13:40;0.60;;;0.50;;
74845;SDS011;63393;48.758;9.254;2023-05-10T01:14:12;2.78;;;0.60;;
74845;SDS011;63393;48.758;9.254;2023-05-10T01:14:44;0.52;;;0.50;;
74845;SDS011;63393;48.758;9.254;2023-05-10T01:15:16;4.30;;;0.50;;
74845;SDS011;63393;48.758;9.254;2023-05-10T01:15:49;0.85;;;0.60;;
74845;SDS011;63393;48.758;9.254;2023-05-10T01:16:20;1.35;;;0.65;;
74845;SDS011;63393;48.758;9.254;2023-05-10T01:16:52;2.22;;;0.50;;
74845;SDS011;63393;48.758;9.254;2023-05-10T01:17:23;3.88;;;0.70;;
74845;SDS011;63393;48.758;9.254;2023-05-10T01:17:55;2.38;;;0.50;;
74845;SDS011;63393;48.758;9.254;2023-05-10T01:18:27;1.52;;;0.50;;
74845;SDS011;63393;48.758;9.254;2023-05-10T01:18:59;2.20;;;0.65;;
74845;SDS011;63393;48.758;9.254;2023-05-10T01:19:32;1.25;;;0.43;;
74845;SDS011;63393;48.758;9.254;2023-05-10T01:20:06;3.60;;;0.60;;
74845;SDS011;63393;48.758;9.254;2023-05-10T01:20:43;0.70;;;0.40;;
74845;SDS011;63393;48.758;9.254;2023-05-10T01:21:20;1.98;;;0.57;;
74845;SDS011;63393;48.758;9.254;2023-05-10T01:21:58;1.33;;;0.60;;
74845;SDS011;63393;48.758;9.254;2023-05-10T01:22:39;1.67;;;0.50;;
74845;SDS011;63393;48.758;9.254;2023-05-10T01:23:26;1.80;;;0.75;;
74845;SDS011;63393;48.758;9.254;2023-05-10T01:25:01;1.05;;;0.43;;
74845;SDS011;63393;48.758;9.254;2023-05-10T01:26:28;2.03;;;0.60;;
74845;SDS011;63393;48.758;9.254;2023-05-10T01:27:17;0.93;;;0.50;;
74845;SDS011;63393;48.758;9.254;2023-05-10T01:27:55;4.32;;;0.60;;
74845;SDS011;63393;48.758;9.254;2023-05-10T01:28:45;0.93;;;0.60;;
74845;SDS011;63393;48.758;9.254;2023-05-10T01:29:24;2.58;;;0.65;;
74845;SDS011;63393;48.758;9.254;2023-05-10T01:30:18;3.97;;;0.80;;
74845;SDS011;63393;48.758;9.254;2023-05-10T01:31:02;0.90;;;0.52;;
74845;SDS011;63393;48.758;9.254;2023-05-10T01:31:40;5.18;;;0.75;;
74845;SDS011;63393;48.758;9.254;2023-05-10T01:32:20;1.50;;;0.43;;
74845;SDS011;63393;48.758;9.254;2023-05-10T01:32:56;1.48;;;0.60;;
74845;SDS011;63393;48.758;9.254;2023-05-10T01:33:29;1.02;;;0.52;;
74845;SDS011;63393;48.758;9.254;2023-05-10T01:34:01;5.45;;;0.60;;
74845;SDS011;63393;48.758;9.254;2023-05-10T01:34:34;0.82;;;0.50;;
74845;SDS011;63393;48.758;9.254;2023-05-10T01:35:07;1.88;;;0.60;;
74845;SDS011;63393;48.758;9.254;2023-05-10T01:35:41;0.60;;;0.45;;
74845;SDS011;63393;48.758;9.254;2023-05-10T01:36:15;1.58;;;0.52;;
74845;SDS011;63393;48.758;9.254;2023-05-10T01:36:51;2.47;;;0.60;;
74845;SDS011;63393;48.758;9.254;2023-05-10T01:37:28;0.50;;;0.50;;
74845;SDS011;63393;48.758;9.254;2023-05-10T01:38:04;0.52;;;0.47;;
74845;SDS011;63393;48.758;9.254;2023-05-10T01:38:41;1.77;;;0.60;;
74845;SDS011;63393;48.758;9.254;2023-05-10T01:39:15;1.65;;;0.43;;
74845;SDS011;63393;48.758;9.254;2023-05-10T01:39:49;3.33;;;0.65;;
74845;SDS011;63393;48.758;9.254;2023-05-10T01:40:26;0.65;;;0.60;;
74845;SDS011;63393;48.758;9.254;2023-05-10T01:41:01;1.23;;;0.65;;
74845;SDS011;63393;48.758;9.254;2023-05-10T01:41:36;0.75;;;0.47;;
74845;SDS011;63393;48.758;9.254;2023-05-10T01:42:10;1.25;;;0.60;;
74845;SDS011;63393;48.758;9.254;2023-05-10T01:42:44;3.00;;;0.60;;
74845;SDS011;63393;48.758;9.254;2023-05-10T01:43:18;1.63;;;0.50;;
74845;SDS011;63393;48.758;9.254;2023-05-10T01:43:53;1.85;;;0.70;;
74845;SDS011;63393;48.758;9.254;2023-05-10T01:44:29;2.83;;;0.80;;
74845;SDS011;63393;48.758;9.254;2023-05-10T01:45:07;1.02;;;0.50;;
74845;SDS011;63393;48.758;9.254;2023-05-10T01:45:40;1.05;;;0.60;;
74845;SDS011;63393;48.758;9.254;2023-05-10T01:46:14;0.60;;;0.60;;
74845;SDS011;63393;48.758;9.254;2023-05-10T01:46:58;0.75;;;0.60;;
74845;SDS011;63393;48.758;9.254;2023-05-10T01:47:34;0.93;;;0.50;;
74845;SDS011;63393;48.758;9.254;2023-05-10T01:48:07;0.70;;;0.60;;
74845;SDS011;63393;48.758;9.254;2023-05-10T01:48:40;0.65;;;0.50;;
74845;SDS011;63393;48.758;9.254;2023-05-10T01:49:16;1.70;;;0.55;;
74845;SDS011;63393;48.758;9.254;2023-05-10T01:49:51;2.65;;;0.50;;
74845;SDS011;63393;48.758;9.254;2023-05-10T01:50:24;2.45;;;0.70;;
74845;SDS011;63393;48.758;9.254;2023-05-10T01:50:58;3.05;;;0.60;;
74845;SDS011;63393;48.758;9.254;2023-05-10T01:51:31;2.55;;;0.60;;
74845;SDS011;63393;48.758;9.254;2023-05-10T01:52:08;1.67;;;0.70;;
74845;SDS011;63393;48.758;9.254;2023-05-10T01:52:41;1.75;;;0.80;;
74845;SDS011;63393;48.758;9.254;2023-05-10T01:53:13;2.15;;;0.60;;
74845;SDS011;63393;48.758;9.254;2023-05-10T01:53:49;2.20;;;0.88;;
74845;SDS011;63393;48.758;9.254;2023-05-10T01:54:22;1.35;;;0.80;;
74845;SDS011;63393;48.758;9.254;2023-05-10T01:54:55;3.42;;;0.70;;
74845;SDS011;63393;48.758;9.254;2023-05-10T01:55:27;3.17;;;0.90;;
74845;SDS011;63393;48.758;9.254;2023-05-10T01:55:59;0.70;;;0.60;;
74845;SDS011;63393;48.758;9.254;2023-05-10T01:56:32;2.47;;;0.80;;
74845;SDS011;63393;48.758;9.254;2023-05-10T01:57:05;4.13;;;0.80;;
74845;SDS011;63393;48.758;9.254;2023-05-10T01:57:37;2.25;;;0.95;;
74845;SDS011;63393;48.758;9.254;2023-05-10T01:58:09;4.60;;;1.00;;
74845;SDS011;63393;48.758;9.254;2023-05-10T01:58:41;2.70;;;0.90;;
74845;SDS011;63393;48.758;9.254;2023-05-10T01:59:13;2.92;;;0.80;;
74845;SDS011;63393;48.758;9.254;2023-05-10T01:59:46;5.57;;;1.00;;
74845;SDS011;63393;48.758;9.254;2023-05-10T02:00:20;1.38;;;0.70;;
74845;SDS011;63393;48.758;9.254;2023-05-10T02:00:56;1.55;;;0.80;;
74845;SDS011;63393;48.758;9.254;2023-05-10T02:01:29;4.93;;;0.90;;
74845;SDS011;63393;48.758;9.254;2023-05-10T02:02:00;0.90;;;0.68;;
74845;SDS011;63393;48.758;9.254;2023-05-10T02:02:36;1.02;;;0.70;;
74845;SDS011;63393;48.758;9.254;2023-05-10T02:03:09;7.75;;;0.80;;
74845;SDS011;63393;48.758;9.254;2023-05-10T02:03:41;2.95;;;0.70;;
74845;SDS011;63393;48.758;9.254;2023-05-10T02:04:14;1.10;;;0.80;;
74845;SDS011;63393;48.758;9.254;2023-05-10T02:04:47;1.38;;;0.77;;
74845;SDS011;63393;48.758;9.254;2023-05-10T02:05:18;1.77;;;0.75;;
74845;SDS011;63393;48.758;9.254;2023-05-10T02:05:51;2.20;;;0.90;;
74845;SDS011;63393;48.758;9.254;2023-05-10T02:06:25;2.30;;;0.93;;
74845;SDS011;63393;48.758;9.254;2023-05-10T02:06:57;7.00;;;2.92;;
74845;SDS011;63393;48.758;9.254;2023-05-10T02:07:29;14.68;;;8.25;;
74845;SDS011;63393;48.758;9.254;2023-05-10T02:08:01;9.00;;;3.60;;
74845;SDS011;63393;48.758;9.254;2023-05-10T02:08:34;6.85;;;2.20;;
74845;SDS011;63393;48.758;9.254;2023-05-10T02:09:07;3.97;;;0.98;;
74845;SDS011;63393;48.758;9.254;2023-05-10T02:09:39;6.50;;;1.10;;
74845;SDS011;63393;48.758;9.254;2023-05-10T02:10:11;3.00;;;0.90;;
74845;SDS011;63393;48.758;9.254;2023-05-10T02:10:44;4.63;;;0.70;;
74845;SDS011;63393;48.758;9.254;2023-05-10T02:11:16;3.28;;;0.80;;
74845;SDS011;63393;48.758;9.254;2023-05-10T02:11:48;1.20;;;0.85;;
74845;SDS011;63393;48.758;9.254;2023-05-10T02:12:20;2.92;;;0.90;;
74845;SDS011;63393;48.758;9.254;2023-05-10T02:12:53;4.25;;;0.82;;
74845;SDS011;63393;48.758;9.254;2023-05-10T02:13:25;3.65;;;0.90;;
74845;SDS011;63393;48.758;9.254;2023-05-10T02:13:58;5.90;;;1.50;;
74845;SDS011;63393;48.758;9.254;2023-05-10T02:14:32;3.83;;;0.90;;
74845;SDS011;63393;48.758;9.254;2023-05-10T02:15:05;5.97;;;1.00;;
74845;SDS011;63393;48.758;9.254;2023-05-10T02:15:37;3.53;;;0.95;;
74845;SDS011;63393;48.758;9.254;2023-05-10T02:16:09;5.53;;;1.70;;
74845;SDS011;63393;48.758;9.254;2023-05-10T02:16:41;1.75;;;0.90;;
74845;SDS011;63393;48.758;9.254;2023-05-10T02:17:13;5.20;;;1.00;;
74845;SDS011;63393;48.758;9.254;2023-05-10T02:17:46;5.13;;;1.10;;
74845;SDS011;63393;48.758;9.254;2023-05-10T02:18:17;3.38;;;1.00;;
74845;SDS011;63393;48.758;9.254;2023-05-10T02:18:49;4.35;;;1.20;;
74845;SDS011;63393;48.758;9.254;2023-05-10T02:19:21;5.78;;;1.52;;
74845;SDS011;63393;48.758;9.254;2023-05-10T02:19:54;3.78;;;1.20;;
74845;SDS011;63393;48.758;9.254;2023-05-10T02:20:26;4.68;;;1.00;;
74845;SDS011;63393;48.758;9.254;2023-05-10T02:20:57;3.85;;;1.00;;
74845;SDS011;63393;48.758;9.254;2023-05-10T02:21:29;4.45;;;0.90;;
74845;SDS011;63393;48.758;9.254;2023-05-10T02:22:01;6.22;;;1.00;;
74845;SDS011;63393;48.758;9.254;2023-05-10T02:22:33;3.83;;;1.10;;
74845;SDS011;63393;48.758;9.254;2023-05-10T02:23:05;5.32;;;1.00;;
74845;SDS011;63393;48.758;9.254;2023-05-10T02:23:37;6.60;;;1.00;;
74845;SDS011;63393;48.758;9.254;2023-05-10T02:24:09;5.47;;;0.90;;
74845;SDS011;63393;48.758;9.254;2023-05-10T02:24:41;1.60;;;0.80;;
74845;SDS011;63393;48.758;9.254;2023-05-10T02:25:13;4.97;;;0.90;;
74845;SDS011;63393;48.758;9.254;2023-05-10T02:25:44;1.48;;;0.90;;
74845;SDS011;63393;48.758;9.254;2023-05-10T02:26:17;5.07;;;1.15;;
74845;SDS011;63393;48.758;9.254;2023-05-10T02:26:50;3.92;;;0.82;;
74845;SDS011;63393;48.758;9.254;2023-05-10T02:27:22;7.15;;;1.20;;
74845;SDS011;63393;48.758;9.254;2023-05-10T02:27:55;4.22;;;1.20;;
74845;SDS011;63393;48.758;9.254;2023-05-10T02:28:26;2.65;;;1.20;;
74845;SDS011;63393;48.758;9.254;2023-05-10T02:28:59;4.40;;;0.95;;
74845;SDS011;63393;48.758;9.254;2023-05-10T02:29:31;6.45;;;1.00;;
74845;SDS011;63393;48.758;9.254;2023-05-10T02:30:04;5.65;;;1.10;;
74845;SDS011;63393;48.758;9.254;2023-05-10T02:30:36;6.43;;;1.05;;
74845;SDS011;63393;48.758;9.254;2023-05-10T02:31:07;6.07;;;1.25;;
74845;SDS011;63393;48.758;9.254;2023-05-10T02:31:39;2.35;;;0.90;;
74845;SDS011;63393;48.758;9.254;2023-05-10T02:32:10;5.32;;;1.02;;
74845;SDS011;63393;48.758;9.254;2023-05-10T02:32:42;3.85;;;1.33;;
74845;SDS011;63393;48.758;9.254;2023-05-10T02:33:15;1.80;;;0.90;;
74845;SDS011;63393;48.758;9.254;2023-05-10T02:33:46;1.45;;;0.80;;
74845;SDS011;63393;48.758;9.254;2023-05-10T02:34:26;1.95;;;0.80;;
74845;SDS011;63393;48.758;9.254;2023-05-10T02:34:58;3.85;;;1.00;;
74845;SDS011;63393;48.758;9.254;2023-05-10T02:35:31;5.93;;;1.25;;
74845;SDS011;63393;48.758;9.254;2023-05-10T02:36:03;2.83;;;0.90;;
74845;SDS011;63393;48.758;9.254;2023-05-10T02:36:34;3.33;;;1.00;;
74845;SDS011;63393;48.758;9.254;2023-05-10T02:37:05;5.50;;;1.00;;
74845;SDS011;63393;48.758;9.254;2023-05-10T02:37:37;4.40;;;1.20;;
74845;SDS011;63393;48.758;9.254;2023-05-10T02:38:08;3.03;;;1.00;;
74845;SDS011;63393;48.758;9.254;2023-05-10T02:38:40;1.23;;;0.88;;
74845;SDS011;63393;48.758;9.254;2023-05-10T02:39:12;2.70;;;0.90;;
74845;SDS011;63393;48.758;9.254;2023-05-10T02:39:43;2.60;;;0.90;;
74845;SDS011;63393;48.758;9.254;2023-05-10T02:40:15;6.10;;;1.00;;
74845;SDS011;63393;48.758;9.254;2023-05-10T02:40:46;3.72;;;1.13;;
74845;SDS011;63393;48.758;9.254;2023-05-10T02:41:19;4.28;;;1.08;;
74845;SDS011;63393;48.758;9.254;2023-05-10T02:41:52;3.33;;;1.05;;
74845;SDS011;63393;48.758;9.254;2023-05-10T02:42:25;3.25;;;0.90;;
74845;SDS011;63393;48.758;9.254;2023-05-10T02:42:57;2.72;;;0.90;;
74845;SDS011;63393;48.758;9.254;2023-05-10T02:43:30;9.40;;;1.48;;
74845;SDS011;63393;48.758;9.254;2023-05-10T02:44:02;3.60;;;1.05;;
74845;SDS011;63393;48.758;9.254;2023-05-10T02:44:33;5.07;;;0.93;;
74845;SDS011;63393;48.758;9.254;2023-05-10T02:45:07;5.15;;;1.45;;
74845;SDS011;63393;48.758;9.254;2023-05-10T02:45:39;5.65;;;1.10;;
74845;SDS011;63393;48.758;9.254;2023-05-10T02:46:11;2.47;;;0.95;;
74845;SDS011;63393;48.758;9.254;2023-05-10T02:46:42;4.85;;;1.27;;
74845;SDS011;63393;48.758;9.254;2023-05-10T02:47:13;8.20;;;1.67;;
74845;SDS011;63393;48.758;9.254;2023-05-10T02:47:45;3.50;;;0.98;;
74845;SDS011;63393;48.758;9.254;2023-05-10T02:48:17;5.38;;;1.40;;
74845;SDS011;63393;48.758;9.254;2023-05-10T02:48:48;2.38;;;1.27;;
74845;SDS011;63393;48.758;9.254;2023-05-10T02:49:20;4.47;;;1.25;;
74845;SDS011;63393;48.758;9.254;2023-05-10T02:49:51;3.42;;;1.38;;
74845;SDS011;63393;48.758;9.254;2023-05-10T02:50:23;4.05;;;1.30;;
74845;SDS011;63393;48.758;9.254;2023-05-10T02:50:59;4.88;;;1.05;;
74845;SDS011;63393;48.758;9.254;2023-05-10T02:51:32;6.80;;;1.27;;
74845;SDS011;63393;48.758;9.254;2023-05-10T02:52:05;2.13;;;1.10;;
74845;SDS011;63393;48.758;9.254;2023-05-10T02:52:39;4.15;;;1.25;;
74845;SDS011;63393;48.758;9.254;2023-05-10T02:53:11;3.25;;;1.17;;
74845;SDS011;63393;48.758;9.254;2023-05-10T02:53:46;4.13;;;1.30;;
74845;SDS011;63393;48.758;9.254;2023-05-10T02:54:18;8.82;;;1.60;;
74845;SDS011;63393;48.758;9.254;2023-05-10T02:54:50;4.07;;;1.30;;
74845;SDS011;63393;48.758;9.254;2023-05-10T02:55:22;7.07;;;1.48;;
74845;SDS011;63393;48.758;9.254;2023-05-10T02:55:57;6.35;;;1.40;;
74845;SDS011;63393;48.758;9.254;2023-05-10T02:56:31;4.45;;;1.40;;
74845;SDS011;63393;48.758;9.254;2023-05-10T02:57:04;6.65;;;1.65;;
74845;SDS011;63393;48.758;9.254;2023-05-10T02:57:35;5.82;;;1.55;;
74845;SDS011;63393;48.758;9.254;2023-05-10T02:58:09;3.47;;;1.40;;
74845;SDS011;63393;48.758;9.254;2023-05-10T02:58:40;7.13;;;1.67;;
74845;SDS011;63393;48.758;9.254;2023-05-10T02:59:11;11.13;;;1.65;;
74845;SDS011;63393;48.758;9.254;2023-05-10T02:59:43;3.58;;;1.40;;
74845;SDS011;63393;48.758;9.254;2023-05-10T03:00:14;4.55;;;1.48;;
74845;SDS011;63393;48.758;9.254;2023-05-10T03:00:45;2.70;;;1.33;;
74845;SDS011;63393;48.758;9.254;2023-05-10T03:01:17;5.70;;;1.40;;
74845;SDS011;63393;48.758;9.254;2023-05-10T03:01:48;3.67;;;1.30;;
74845;SDS011;63393;48.758;9.254;2023-05-10T03:02:20;7.90;;;1.30;;
74845;SDS011;63393;48.758;9.254;2023-05-10T03:02:51;6.97;;;1.70;;
74845;SDS011;63393;48.758;9.254;2023-05-10T03:03:23;2.67;;;1.30;;
74845;SDS011;63393;48.758;9.254;2023-05-10T03:03:55;4.10;;;1.33;;
74845;SDS011;63393;48.758;9.254;2023-05-10T03:04:26;7.72;;;1.50;;
74845;SDS011;63393;48.758;9.254;2023-05-10T03:05:00;4.13;;;1.35;;
74845;SDS011;63393;48.758;9.254;2023-05-10T03:05:31;6.68;;;1.30;;
74845;SDS011;63393;48.758;9.254;2023-05-10T03:06:05;3.40;;;1.38;;
74845;SDS011;63393;48.758;9.254;2023-05-10T03:06:36;3.38;;;1.20;;
74845;SDS011;63393;48.758;9.254;2023-05-10T03:07:08;5.68;;;1.35;;
74845;SDS011;63393;48.758;9.254;2023-05-10T03:07:40;3.78;;;1.40;;
74845;SDS011;63393;48.758;9.254;2023-05-10T03:08:11;6.40;;;1.20;;
74845;SDS011;63393;48.758;9.254;2023-05-10T03:08:42;6.50;;;1.65;;
74845;SDS011;63393;48.758;9.254;2023-05-10T03:09:15;5.30;;;1.40;;
74845;SDS011;63393;48.758;9.254;2023-05-10T03:09:47;3.13;;;1.05;;
74845;SDS011;63393;48.758;9.254;2023-05-10T03:10:18;4.82;;;1.17;;
74845;SDS011;63393;48.758;9.254;2023-05-10T03:10:55;1.90;;;1.00;;
74845;SDS011;63393;48.758;9.254;2023-05-10T03:11:32;3.63;;;1.13;;
74845;SDS011;63393;48.758;9.254;2023-05-10T03:12:11;5.80;;;1.20;;
74845;SDS011;63393;48.758;9.254;2023-05-10T03:12:46;12.32;;;1.20;;
74845;SDS011;63393;48.758;9.254;2023-05-10T03:13:21;2.72;;;1.45;;
74845;SDS011;63393;48.758;9.254;2023-05-10T03:13:56;4.13;;;1.42;;
74845;SDS011;63393;48.758;9.254;2023-05-10T03:14:36;3.70;;;1.30;;
74845;SDS011;63393;48.758;9.254;2023-05-10T03:15:13;5.22;;;1.80;;
74845;SDS011;63393;48.758;9.254;2023-05-10T03:15:47;4.05;;;1.45;;
74845;SDS011;63393;48.758;9.254;2023-05-10T03:16:21;6.15;;;1.40;;
74845;SDS011;63393;48.758;9.254;2023-05-10T03:16:56;4.57;;;1.33;;
74845;SDS011;63393;48.758;9.254;2023-05-10T03:17:29;4.15;;;1.23;;
74845;SDS011;63393;48.758;9.254;2023-05-10T03:18:04;2.92;;;1.30;;
74845;SDS011;63393;48.758;9.254;2023-05-10T03:18:40;7.32;;;1.30;;
74845;SDS011;63393;48.758;9.254;2023-05-10T03:19:15;8.57;;;1.40;;
74845;SDS011;63393;48.758;9.254;2023-05-10T03:19:47;3.05;;;1.20;;